Time;durP1;ratioP1;P1;durP2;ratioP2;P2;SDS_P1;SDS_P2;PMS_P1;PMS_P2;Temp;Humidity;BMP_temperature;BMP_pressure;BME280_temperature;BME280_humidity;BME280_pressure;Samples;Min_cycle;Max_cycle;Signal;HPM_P1;HPM_P2
2024/03/20 00:00:14;;;;;;;0.70;0.70;;;12.90;75.50;;;;;;5078023;28;20108;-65
2024/03/20 00:02:40;;;;;;;1.45;0.80;;;12.80;75.60;;;;;;5069601;28;20028;-65
2024/03/20 00:05:06;;;;;;;1.00;0.90;;;12.80;75.70;;;;;;5070326;28;20035;-66
2024/03/20 00:07:32;;;;;;;0.90;0.90;;;12.80;75.80;;;;;;5068335;28;20067;-66
2024/03/20 00:09:57;;;;;;;1.00;0.80;;;12.80;76.00;;;;;;5076136;28;20095;-65
2024/03/20 00:12:23;;;;;;;1.90;0.90;;;12.70;76.00;;;;;;5075875;28;20036;-66
2024/03/20 00:14:48;;;;;;;1.90;0.90;;;12.70;76.10;;;;;;5074882;28;20025;-65
2024/03/20 00:17:14;;;;;;;1.40;0.90;;;12.60;76.20;;;;;;5073664;28;20012;-66
2024/03/20 00:19:40;;;;;;;0.93;0.82;;;12.70;76.30;;;;;;5071111;28;20068;-66
2024/03/20 00:22:06;;;;;;;1.70;0.93;;;12.70;76.20;;;;;;5071722;28;20121;-66
2024/03/20 00:24:31;;;;;;;2.00;1.00;;;12.70;76.20;;;;;;5067723;28;20024;-64
2024/03/20 00:26:57;;;;;;;1.55;0.90;;;12.70;76.20;;;;;;5074017;28;20025;-67
2024/03/20 00:29:23;;;;;;;1.83;1.15;;;12.80;76.20;;;;;;5070139;28;20036;-66
2024/03/20 00:31:48;;;;;;;1.13;0.98;;;12.80;76.20;;;;;;5078389;28;20024;-66
2024/03/20 00:34:14;;;;;;;1.55;1.00;;;12.80;76.10;;;;;;5073387;28;20501;-66
2024/03/20 00:36:39;;;;;;;1.70;1.05;;;12.80;76.10;;;;;;5077983;28;20111;-66
2024/03/20 00:39:08;;;;;;;1.80;1.10;;;12.80;76.70;;;;;;5072382;28;20291;-65
2024/03/20 00:41:34;;;;;;;1.75;1.17;;;12.80;76.10;;;;;;5070762;28;20432;-66
2024/03/20 00:43:59;;;;;;;2.10;1.13;;;12.80;76.10;;;;;;5077414;28;20021;-66
2024/03/20 00:46:25;;;;;;;1.90;1.30;;;12.80;76.20;;;;;;5089880;28;20085;-66
2024/03/20 00:48:50;;;;;;;3.03;1.55;;;12.80;76.20;;;;;;5075815;28;20024;-65
2024/03/20 00:51:16;;;;;;;1.45;1.05;;;12.80;76.10;;;;;;5085597;28;20028;-66
2024/03/20 00:53:42;;;;;;;1.45;1.08;;;12.80;76.30;;;;;;5080276;28;20039;-66
2024/03/20 00:56:07;;;;;;;2.22;1.10;;;12.70;76.40;;;;;;5078576;28;20117;-66
2024/03/20 00:58:33;;;;;;;1.75;1.10;;;12.70;76.50;;;;;;5073951;28;20606;-66
2024/03/20 01:00:59;;;;;;;1.58;1.10;;;12.70;76.50;;;;;;5076291;28;20379;-66
2024/03/20 01:03:24;;;;;;;1.58;0.98;;;12.70;76.50;;;;;;5078665;28;20367;-67
2024/03/20 01:05:50;;;;;;;1.23;1.08;;;12.70;76.50;;;;;;5073420;28;20110;-65
2024/03/20 01:08:18;;;;;;;1.75;1.20;;;12.70;76.50;;;;;;5073349;28;20035;-66
2024/03/20 01:10:44;;;;;;;2.90;1.33;;;12.70;76.60;;;;;;5085460;28;20039;-65
2024/03/20 01:13:09;;;;;;;2.05;1.10;;;12.70;76.80;;;;;;5078414;28;20024;-65
2024/03/20 01:15:35;;;;;;;1.83;1.10;;;12.70;76.80;;;;;;5081995;28;20107;-67
2024/03/20 01:18:01;;;;;;;1.75;1.10;;;12.60;76.80;;;;;;5069949;28;20113;-66
2024/03/20 01:20:27;;;;;;;1.60;1.10;;;12.60;76.80;;;;;;5069902;28;20522;-66
2024/03/20 01:22:53;;;;;;;1.30;1.02;;;12.70;76.80;;;;;;5063224;28;20024;-66
2024/03/20 01:25:18;;;;;;;2.85;1.20;;;12.70;76.80;;;;;;5070590;28;20024;-66
2024/03/20 01:27:45;;;;;;;2.30;1.13;;;12.60;76.80;;;;;;5078246;28;20025;-66
2024/03/20 01:30:11;;;;;;;1.60;1.10;;;12.50;76.90;;;;;;5077785;28;20398;-66
2024/03/20 01:32:37;;;;;;;1.73;1.10;;;12.50;77.10;;;;;;5074939;28;20021;-66
2024/03/20 01:35:03;;;;;;;1.95;1.10;;;12.50;77.20;;;;;;5075618;28;20479;-66
2024/03/20 01:37:29;;;;;;;1.40;0.95;;;12.50;77.20;;;;;;5076596;28;20020;-66
2024/03/20 01:39:55;;;;;;;1.85;1.30;;;12.50;77.20;;;;;;5074482;28;20028;-66
2024/03/20 01:42:20;;;;;;;1.20;1.02;;;12.50;77.30;;;;;;5074516;28;20024;-67
2024/03/20 01:44:46;;;;;;;1.52;1.10;;;12.50;77.40;;;;;;5073541;28;20053;-67
2024/03/20 01:47:11;;;;;;;1.73;1.00;;;12.50;77.30;;;;;;5071446;28;20111;-66
2024/03/20 01:49:37;;;;;;;1.60;1.10;;;12.50;77.30;;;;;;5072795;28;20059;-67
2024/03/20 01:52:04;;;;;;;1.17;1.00;;;12.40;77.30;;;;;;5075511;28;20033;-66
2024/03/20 01:54:30;;;;;;;1.50;1.17;;;12.50;78.00;;;;;;5080067;28;20029;-67
2024/03/20 01:56:56;;;;;;;1.48;1.20;;;12.50;77.40;;;;;;5072449;28;20078;-66
2024/03/20 01:59:21;;;;;;;1.52;1.02;;;12.50;77.50;;;;;;5077732;28;20098;-66
2024/03/20 02:01:47;;;;;;;1.58;1.17;;;12.40;77.40;;;;;;5075051;28;20024;-66
2024/03/20 02:04:12;;;;;;;1.38;0.90;;;12.40;77.40;;;;;;5080180;28;20060;-66
2024/03/20 02:06:38;;;;;;;1.00;0.93;;;12.50;77.50;;;;;;5078708;28;20029;-66
2024/03/20 02:09:07;;;;;;;1.20;1.00;;;12.50;77.50;;;;;;5073931;28;20475;-67
2024/03/20 02:11:33;;;;;;;1.50;1.02;;;12.50;77.50;;;;;;5072660;28;20029;-66
2024/03/20 02:13:59;;;;;;;1.83;1.10;;;12.60;77.50;;;;;;5067817;28;20123;-66
2024/03/20 02:16:27;;;;;;;1.30;1.02;;;12.60;77.40;;;;;;5077237;28;20033;-65
2024/03/20 02:18:53;;;;;;;1.63;1.20;;;12.60;77.40;;;;;;5071117;28;20386;-66
2024/03/20 02:21:21;;;;;;;2.15;1.00;;;12.60;77.40;;;;;;5076365;28;20439;-66
2024/03/20 02:23:47;;;;;;;2.00;1.02;;;12.60;77.40;;;;;;5077249;28;20476;-65
2024/03/20 02:26:13;;;;;;;1.40;0.90;;;12.60;77.30;;;;;;5079078;28;20024;-65
2024/03/20 02:28:41;;;;;;;1.73;0.90;;;12.70;77.30;;;;;;5069796;28;20036;-66
2024/03/20 02:31:07;;;;;;;1.85;1.00;;;12.70;77.30;;;;;;5075167;28;20027;-67
2024/03/20 02:33:34;;;;;;;1.10;1.00;;;12.70;77.30;;;;;;5069656;28;20016;-66
2024/03/20 02:36:00;;;;;;;2.05;0.90;;;12.70;77.30;;;;;;5069711;28;20021;-67
2024/03/20 02:38:30;;;;;;;1.55;0.90;;;12.70;77.30;;;;;;5073207;28;20098;-66
2024/03/20 02:40:56;;;;;;;1.80;1.05;;;12.70;77.30;;;;;;5067250;28;20277;-67
2024/03/20 02:43:22;;;;;;;2.80;1.02;;;12.70;77.20;;;;;;5076625;28;20029;-67
2024/03/20 02:45:48;;;;;;;2.13;1.08;;;12.70;77.80;;;;;;5074237;28;20036;-67
2024/03/20 02:48:13;;;;;;;1.13;0.90;;;12.70;77.40;;;;;;5069099;28;20033;-66
2024/03/20 02:50:40;;;;;;;1.77;1.13;;;12.70;77.50;;;;;;5066706;28;20021;-66
2024/03/20 02:53:05;;;;;;;1.00;0.90;;;12.70;77.40;;;;;;5069699;28;20028;-66
2024/03/20 02:55:35;;;;;;;1.58;0.90;;;12.60;77.40;;;;;;5071912;28;20028;-67
2024/03/20 02:58:02;;;;;;;1.60;1.00;;;12.70;77.40;;;;;;5072098;28;20020;-67
2024/03/20 03:00:28;;;;;;;1.00;0.88;;;12.70;77.30;;;;;;5073028;28;20012;-67
2024/03/20 03:02:54;;;;;;;1.23;1.00;;;12.70;77.20;;;;;;5071181;28;20027;-66
2024/03/20 03:05:22;;;;;;;0.85;0.85;;;12.70;77.20;;;;;;5073766;28;20042;-66
2024/03/20 03:07:47;;;;;;;1.25;0.90;;;12.70;77.40;;;;;;5069593;28;20516;-65
2024/03/20 03:10:14;;;;;;;1.08;1.00;;;12.70;77.50;;;;;;5070301;28;20021;-66
2024/03/20 03:12:41;;;;;;;2.20;1.00;;;12.70;77.40;;;;;;5080409;28;20692;-66
2024/03/20 03:15:07;;;;;;;1.13;0.90;;;12.60;77.40;;;;;;5069230;28;20017;-66
2024/03/20 03:17:32;;;;;;;1.55;0.93;;;12.60;77.60;;;;;;5077578;28;20077;-65
2024/03/20 03:19:58;;;;;;;2.05;1.10;;;12.60;77.70;;;;;;5072286;28;20020;-66
2024/03/20 03:22:24;;;;;;;2.33;0.95;;;12.70;77.70;;;;;;5078502;28;20034;-66
2024/03/20 03:24:49;;;;;;;1.58;1.00;;;12.70;77.60;;;;;;5070851;28;20032;-66
2024/03/20 03:27:15;;;;;;;1.02;0.70;;;12.70;77.60;;;;;;5069864;28;20032;-65
2024/03/20 03:29:40;;;;;;;1.45;1.15;;;12.70;77.60;;;;;;5072755;28;20066;-66
2024/03/20 03:32:06;;;;;;;2.22;0.90;;;12.80;77.50;;;;;;5068179;28;20545;-66
2024/03/20 03:34:32;;;;;;;2.13;1.10;;;12.80;77.40;;;;;;5071962;28;20056;-66
2024/03/20 03:36:58;;;;;;;2.45;1.00;;;12.80;77.50;;;;;;5067680;28;20066;-65
2024/03/20 03:39:24;;;;;;;0.88;0.85;;;12.70;77.50;;;;;;5075394;28;20479;-66
2024/03/20 03:41:50;;;;;;;1.58;0.93;;;12.70;77.70;;;;;;5068011;28;20070;-65
2024/03/20 03:44:15;;;;;;;1.70;0.98;;;12.70;77.70;;;;;;5066974;28;20036;-66
2024/03/20 03:46:41;;;;;;;1.30;0.90;;;12.70;77.60;;;;;;5067814;28;20017;-66
2024/03/20 03:49:08;;;;;;;1.00;0.90;;;12.70;77.70;;;;;;5068018;28;20056;-66
2024/03/20 03:51:34;;;;;;;1.70;0.90;;;12.70;77.70;;;;;;5067703;28;20032;-67
2024/03/20 03:54:00;;;;;;;2.05;0.90;;;12.60;77.80;;;;;;5071231;28;20074;-65
2024/03/20 03:56:25;;;;;;;2.25;1.23;;;12.50;78.00;;;;;;5079232;28;20032;-64
2024/03/20 03:58:51;;;;;;;1.55;1.10;;;12.50;78.00;;;;;;5080251;28;20165;-66
2024/03/20 04:01:16;;;;;;;1.20;0.90;;;12.50;78.70;;;;;;5077333;28;20036;-67
2024/03/20 04:03:42;;;;;;;1.52;1.05;;;12.50;78.20;;;;;;5065202;28;20487;-66
2024/03/20 04:06:07;;;;;;;1.13;0.90;;;12.40;78.20;;;;;;5073981;28;20509;-66
2024/03/20 04:08:36;;;;;;;1.40;0.90;;;12.30;78.30;;;;;;5065334;28;20384;-66
2024/03/20 04:11:01;;;;;;;1.73;1.00;;;12.30;78.50;;;;;;5076376;28;20029;-67
2024/03/20 04:13:27;;;;;;;1.92;0.93;;;12.30;78.40;;;;;;5084585;28;20032;-66
2024/03/20 04:15:55;;;;;;;1.85;0.90;;;12.30;78.50;;;;;;5077050;28;20023;-66
2024/03/20 04:18:20;;;;;;;1.10;0.88;;;12.30;78.50;;;;;;5077489;28;20023;-65
2024/03/20 04:20:46;;;;;;;0.88;0.77;;;12.30;78.50;;;;;;5078274;28;20108;-66
2024/03/20 04:23:12;;;;;;;1.17;0.93;;;12.20;78.40;;;;;;5076617;28;20161;-67
2024/03/20 04:25:39;;;;;;;2.38;0.98;;;12.20;78.60;;;;;;5070098;28;20542;-66
2024/03/20 04:28:05;;;;;;;1.40;0.95;;;12.10;78.60;;;;;;5074379;28;20471;-66
2024/03/20 04:30:31;;;;;;;1.17;0.95;;;12.10;78.60;;;;;;5072995;28;20024;-66
2024/03/20 04:32:56;;;;;;;0.85;0.82;;;12.10;78.70;;;;;;5075916;28;20073;-65
2024/03/20 04:35:22;;;;;;;1.83;0.70;;;12.10;78.70;;;;;;5071605;28;20028;-65
2024/03/20 04:37:47;;;;;;;1.23;0.90;;;12.00;78.60;;;;;;5072320;28;20024;-65
2024/03/20 04:40:13;;;;;;;1.05;0.90;;;11.90;78.70;;;;;;5074284;28;20545;-65
2024/03/20 04:42:39;;;;;;;0.68;0.68;;;11.90;79.00;;;;;;5078706;28;20532;-66
2024/03/20 04:45:04;;;;;;;1.92;0.80;;;11.90;79.00;;;;;;5069593;28;20034;-66
2024/03/20 04:47:30;;;;;;;1.15;0.82;;;11.90;79.00;;;;;;5072687;28;20073;-67
2024/03/20 04:49:56;;;;;;;1.40;0.82;;;11.90;79.00;;;;;;5077380;28;20032;-66
2024/03/20 04:52:21;;;;;;;0.80;0.80;;;11.80;79.50;;;;;;5074733;28;20032;-66
2024/03/20 04:54:47;;;;;;;1.00;0.90;;;11.80;79.00;;;;;;5081166;28;20115;-66
2024/03/20 04:57:13;;;;;;;1.13;0.88;;;11.80;79.10;;;;;;5069833;28;20099;-67
2024/03/20 04:59:38;;;;;;;0.70;0.70;;;11.80;79.10;;;;;;5077407;28;20029;-65
2024/03/20 05:02:04;;;;;;;1.65;1.00;;;11.70;79.10;;;;;;5071625;28;20032;-66
2024/03/20 05:04:29;;;;;;;1.27;0.88;;;11.70;79.20;;;;;;5068227;28;20093;-66
2024/03/20 05:06:55;;;;;;;1.13;0.80;;;11.70;79.30;;;;;;5067198;28;20040;-67
2024/03/20 05:09:22;;;;;;;1.23;0.80;;;11.60;79.30;;;;;;5074092;28;20175;-65
2024/03/20 05:11:47;;;;;;;0.82;0.80;;;11.60;79.30;;;;;;5073327;28;20083;-66
2024/03/20 05:14:14;;;;;;;1.52;1.00;;;11.60;79.20;;;;;;5075480;28;20013;-67
2024/03/20 05:16:40;;;;;;;1.13;0.80;;;11.60;79.30;;;;;;5070850;28;20056;-67
2024/03/20 05:19:06;;;;;;;1.25;0.80;;;11.50;79.30;;;;;;5073089;28;20684;-67
2024/03/20 05:21:32;;;;;;;1.33;0.82;;;11.50;79.40;;;;;;5072667;28;20043;-67
2024/03/20 05:23:58;;;;;;;1.40;0.90;;;11.50;79.50;;;;;;5070223;28;20387;-66
2024/03/20 05:26:23;;;;;;;2.70;0.80;;;11.40;79.50;;;;;;5067808;28;20522;-67
2024/03/20 05:28:50;;;;;;;1.00;0.75;;;11.40;79.70;;;;;;5070640;28;20024;-66
2024/03/20 05:31:29;;;;;;;0.75;0.75;;;11.40;79.80;;;;;;5080099;28;20423;-66
2024/03/20 05:33:55;;;;;;;1.27;0.90;;;11.40;79.70;;;;;;5073630;28;20107;-67
2024/03/20 05:36:21;;;;;;;1.92;0.73;;;11.40;79.60;;;;;;5073518;28;20078;-67
2024/03/20 05:38:46;;;;;;;1.00;0.88;;;11.40;79.50;;;;;;5077312;28;20098;-67
2024/03/20 05:41:13;;;;;;;1.88;0.80;;;11.30;79.50;;;;;;5080214;28;20024;-67
2024/03/20 05:43:39;;;;;;;1.65;0.70;;;11.30;79.80;;;;;;5066506;28;20044;-66
2024/03/20 05:46:04;;;;;;;1.00;0.88;;;11.30;79.80;;;;;;5070737;28;20060;-67
2024/03/20 05:48:30;;;;;;;1.10;0.80;;;11.30;79.70;;;;;;5077748;28;20024;-67
2024/03/20 05:50:59;;;;;;;1.25;0.85;;;11.30;79.70;;;;;;5071616;28;20036;-67
2024/03/20 05:53:24;;;;;;;1.00;0.90;;;11.30;79.60;;;;;;5070991;28;20024;-67
2024/03/20 05:55:50;;;;;;;0.80;0.80;;;11.30;79.60;;;;;;5078873;28;20093;-66
2024/03/20 05:58:16;;;;;;;0.95;0.82;;;11.30;79.60;;;;;;5073736;28;20028;-68
2024/03/20 06:00:42;;;;;;;1.17;0.90;;;11.40;79.60;;;;;;5067973;28;20055;-67
2024/03/20 06:03:08;;;;;;;1.67;1.00;;;11.40;79.60;;;;;;5069932;28;20402;-67
2024/03/20 06:05:33;;;;;;;1.65;1.00;;;11.40;79.40;;;;;;5076929;28;20450;-68
2024/03/20 06:07:59;;;;;;;0.93;0.70;;;11.50;79.30;;;;;;5065843;28;20586;-67
2024/03/20 06:10:24;;;;;;;0.98;0.90;;;11.50;79.40;;;;;;5076719;28;20091;-66
2024/03/20 06:12:50;;;;;;;1.35;0.95;;;11.50;79.30;;;;;;5074292;28;20036;-66
2024/03/20 06:15:16;;;;;;;0.98;0.80;;;11.60;79.40;;;;;;5068826;28;20053;-67
2024/03/20 06:17:42;;;;;;;1.10;0.90;;;11.60;79.30;;;;;;5071822;28;20024;-66
2024/03/20 06:20:09;;;;;;;1.75;1.10;;;11.60;79.20;;;;;;5068756;28;20059;-66
2024/03/20 06:22:36;;;;;;;1.38;0.80;;;11.60;79.20;;;;;;5073042;28;20648;-66
2024/03/20 06:25:08;;;;;;;1.52;0.90;;;11.60;79.40;;;;;;5074078;28;20020;-66
2024/03/20 06:27:34;;;;;;;1.27;0.95;;;11.70;79.50;;;;;;5070832;28;20048;-67
2024/03/20 06:30:03;;;;;;;1.73;0.88;;;11.70;79.50;;;;;;5071918;28;20028;-66
2024/03/20 06:32:31;;;;;;;1.55;0.90;;;11.70;79.30;;;;;;5076136;28;20024;-66
2024/03/20 06:34:56;;;;;;;2.20;0.98;;;11.80;79.40;;;;;;5070577;28;20063;-66
2024/03/20 06:37:22;;;;;;;1.30;1.00;;;11.90;79.30;;;;;;5064150;28;20132;-66
2024/03/20 06:39:48;;;;;;;1.10;0.77;;;11.90;79.20;;;;;;5071550;28;20059;-66
2024/03/20 06:42:20;;;;;;;2.38;0.95;;;11.90;79.20;;;;;;5070562;28;20025;-66
2024/03/20 06:44:46;;;;;;;2.33;0.77;;;11.90;79.20;;;;;;5071357;28;20021;-66
2024/03/20 06:47:12;;;;;;;1.50;0.90;;;12.00;79.30;;;;;;5072458;28;20143;-67
2024/03/20 06:49:38;;;;;;;1.02;0.90;;;12.00;79.40;;;;;;5076542;28;20107;-67
2024/03/20 06:52:04;;;;;;;0.82;0.80;;;12.10;79.40;;;;;;5070582;28;20117;-66
2024/03/20 06:54:29;;;;;;;1.17;0.80;;;12.20;79.20;;;;;;5068256;28;20025;-67
2024/03/20 06:57:01;;;;;;;1.15;1.00;;;12.30;79.00;;;;;;5068758;28;20036;-66
2024/03/20 06:59:26;;;;;;;2.00;0.85;;;12.40;78.90;;;;;;5072625;28;20099;-66
2024/03/20 07:01:52;;;;;;;1.25;1.00;;;12.50;78.80;;;;;;5070584;28;20119;-67
2024/03/20 07:04:17;;;;;;;1.30;1.08;;;12.50;78.60;;;;;;5069144;28;20393;-66
2024/03/20 07:06:43;;;;;;;1.50;0.93;;;12.60;78.50;;;;;;5066802;28;20064;-67
2024/03/20 07:09:09;;;;;;;1.10;1.00;;;12.60;78.50;;;;;;5065423;28;20103;-67
2024/03/20 07:11:34;;;;;;;1.90;1.00;;;12.70;78.50;;;;;;5064878;28;20024;-67
2024/03/20 07:14:00;;;;;;;1.13;1.00;;;12.80;78.50;;;;;;5066644;28;20064;-66
2024/03/20 07:16:26;;;;;;;1.10;1.00;;;12.80;78.40;;;;;;5065548;28;20039;-66
2024/03/20 07:18:52;;;;;;;1.63;1.02;;;12.90;78.50;;;;;;5064319;28;20449;-67
2024/03/20 07:21:19;;;;;;;1.98;1.15;;;12.90;78.40;;;;;;5066663;28;20163;-66
2024/03/20 07:23:45;;;;;;;2.30;1.13;;;13.00;78.40;;;;;;5070241;28;20008;-67
2024/03/20 07:26:11;;;;;;;2.15;1.20;;;13.10;78.30;;;;;;5067653;28;20028;-66
2024/03/20 07:28:38;;;;;;;2.00;1.17;;;13.20;78.10;;;;;;5071204;28;20028;-67
2024/03/20 07:31:05;;;;;;;1.63;1.23;;;13.30;77.90;;;;;;5066878;28;20020;-66
2024/03/20 07:33:31;;;;;;;1.92;1.20;;;13.40;77.70;;;;;;5071302;28;20027;-67
2024/03/20 07:35:58;;;;;;;2.83;1.25;;;13.50;77.60;;;;;;5070861;28;20024;-66
2024/03/20 07:38:23;;;;;;;2.50;1.50;;;13.50;77.50;;;;;;5063000;28;20099;-67
2024/03/20 07:40:53;;;;;;;2.55;1.30;;;13.60;77.50;;;;;;5066219;28;20712;-67
2024/03/20 07:43:19;;;;;;;2.20;1.33;;;13.70;77.40;;;;;;5066004;28;20021;-66
2024/03/20 07:45:45;;;;;;;1.98;1.40;;;13.70;77.20;;;;;;5068047;28;20036;-66
2024/03/20 07:48:11;;;;;;;1.38;1.27;;;13.90;77.20;;;;;;5067945;28;20399;-66
2024/03/20 07:50:37;;;;;;;2.35;1.40;;;14.10;76.90;;;;;;5065795;28;20016;-66
2024/03/20 07:53:04;;;;;;;3.80;2.00;;;14.30;76.60;;;;;;5069507;28;20027;-66
2024/03/20 07:55:30;;;;;;;4.18;1.90;;;14.30;76.30;;;;;;5066674;28;20093;-66
2024/03/20 07:57:56;;;;;;;2.83;1.73;;;14.40;76.20;;;;;;5065545;28;20502;-66
2024/03/20 08:00:28;;;;;;;3.60;2.05;;;14.60;76.20;;;;;;5060813;28;20025;-66
2024/03/20 08:02:57;;;;;;;3.72;1.75;;;14.60;76.10;;;;;;5066785;28;20013;-67
2024/03/20 08:05:23;;;;;;;3.50;2.08;;;14.60;76.00;;;;;;5065768;28;20625;-66
2024/03/20 08:07:49;;;;;;;3.00;2.00;;;14.70;76.00;;;;;;5068085;28;20036;-67
2024/03/20 08:10:15;;;;;;;3.63;2.05;;;14.70;76.00;;;;;;5064966;28;20090;-67
2024/03/20 08:12:41;;;;;;;3.60;2.50;;;14.70;76.10;;;;;;5067151;28;21274;-68
2024/03/20 08:15:07;;;;;;;5.68;2.47;;;14.70;76.20;;;;;;5066874;28;20032;-67
2024/03/20 08:17:33;;;;;;;5.72;2.58;;;14.70;76.30;;;;;;5067069;28;20017;-67
2024/03/20 08:19:58;;;;;;;5.75;2.90;;;14.80;76.30;;;;;;5065502;28;20086;-67
2024/03/20 08:22:26;;;;;;;3.47;2.47;;;14.90;76.30;;;;;;5067014;28;20031;-67
2024/03/20 08:24:52;;;;;;;3.83;2.55;;;14.90;76.00;;;;;;5069763;28;20047;-67
2024/03/20 08:27:23;;;;;;;4.45;2.92;;;15.10;76.00;;;;;;5066703;28;20021;-68
2024/03/20 08:29:51;;;;;;;3.38;2.55;;;15.10;75.90;;;;;;5070235;28;20024;-66
2024/03/20 08:32:17;;;;;;;4.38;2.90;;;15.20;75.80;;;;;;5068088;28;20099;-67
2024/03/20 08:34:42;;;;;;;6.03;3.83;;;15.20;75.70;;;;;;5066997;28;20131;-67
2024/03/20 08:37:08;;;;;;;5.90;3.30;;;15.20;75.50;;;;;;5060356;28;20449;-66
2024/03/20 08:39:33;;;;;;;5.65;3.60;;;15.20;75.60;;;;;;5065813;28;20033;-67
2024/03/20 08:41:59;;;;;;;4.72;3.03;;;15.20;75.70;;;;;;5068302;28;20025;-67
2024/03/20 08:44:24;;;;;;;8.02;3.33;;;15.30;75.60;;;;;;5069827;28;20016;-66
2024/03/20 08:46:50;;;;;;;5.18;3.70;;;15.50;75.50;;;;;;5068082;28;20376;-66
2024/03/20 08:49:16;;;;;;;5.45;3.17;;;15.50;75.40;;;;;;5067821;28;20104;-66
2024/03/20 08:51:41;;;;;;;6.28;3.75;;;15.50;75.10;;;;;;5069848;28;20059;-67
2024/03/20 08:54:07;;;;;;;5.97;3.35;;;15.50;75.10;;;;;;5069458;28;20025;-67
2024/03/20 08:56:32;;;;;;;5.57;3.15;;;15.60;75.30;;;;;;5068371;28;20036;-66
2024/03/20 08:58:58;;;;;;;4.72;2.83;;;15.70;75.10;;;;;;5068759;28;21702;-67
2024/03/20 09:01:23;;;;;;;4.93;3.00;;;15.80;74.80;;;;;;5065024;28;20066;-67
2024/03/20 09:03:49;;;;;;;5.63;3.08;;;15.90;74.80;;;;;;5074396;28;20418;-67
2024/03/20 09:06:14;;;;;;;5.22;3.03;;;16.00;74.50;;;;;;5079655;28;20082;-66
2024/03/20 09:08:40;;;;;;;4.95;3.17;;;16.00;74.30;;;;;;5069821;28;20097;-67
2024/03/20 09:11:06;;;;;;;6.47;3.53;;;16.00;74.30;;;;;;5077972;28;20109;-66
2024/03/20 09:13:32;;;;;;;4.30;2.92;;;16.10;74.40;;;;;;5071985;28;20032;-66
2024/03/20 09:15:57;;;;;;;5.20;3.25;;;16.20;74.20;;;;;;5079315;28;20356;-67
2024/03/20 09:18:23;;;;;;;4.40;2.90;;;16.20;74.00;;;;;;5074050;28;20399;-66
2024/03/20 09:20:52;;;;;;;4.72;3.20;;;16.20;74.20;;;;;;5069990;28;20390;-66
2024/03/20 09:23:17;;;;;;;5.65;3.40;;;16.30;74.20;;;;;;5081899;28;20012;-67
2024/03/20 09:25:44;;;;;;;5.72;3.03;;;16.40;74.00;;;;;;5069507;28;20051;-66
2024/03/20 09:28:11;;;;;;;2.65;2.10;;;16.50;73.90;;;;;;5072532;28;20139;-67
2024/03/20 09:30:37;;;;;;;4.80;2.63;;;16.60;73.40;;;;;;5070989;28;20107;-67
2024/03/20 09:33:03;;;;;;;5.03;2.40;;;16.70;73.50;;;;;;5077354;28;20028;-67
2024/03/20 09:35:28;;;;;;;4.72;2.85;;;16.80;73.30;;;;;;5077035;28;20031;-67
2024/03/20 09:37:54;;;;;;;5.53;3.67;;;16.90;73.20;;;;;;5069975;28;20021;-67
2024/03/20 09:40:23;;;;;;;5.10;2.50;;;16.90;72.90;;;;;;5069902;28;20426;-66
2024/03/20 09:42:51;;;;;;;3.78;2.80;;;17.00;72.90;;;;;;5074045;28;20090;-67
2024/03/20 09:45:19;;;;;;;4.75;3.10;;;17.00;72.80;;;;;;5077446;28;20039;-67
2024/03/20 09:47:47;;;;;;;6.90;4.20;;;17.00;72.60;;;;;;5069899;28;20033;-66
2024/03/20 09:50:13;;;;;;;5.82;3.70;;;17.00;72.80;;;;;;5074967;28;20033;-67
2024/03/20 09:52:38;;;;;;;7.72;4.13;;;17.10;72.60;;;;;;5067583;28;20036;-67
2024/03/20 09:55:14;;;;;;;4.55;3.00;;;17.00;72.40;;;;;;5072342;28;20394;-67
2024/03/20 09:57:42;;;;;;;5.55;3.53;;;17.10;72.60;;;;;;5066792;28;20534;-67
2024/03/20 10:00:14;;;;;;;4.50;3.00;;;17.20;72.40;;;;;;5070072;28;20047;-67
2024/03/20 10:02:43;;;;;;;6.15;3.70;;;17.20;72.30;;;;;;5065986;28;20043;-67
2024/03/20 10:05:12;;;;;;;5.93;3.55;;;17.20;72.20;;;;;;5066459;28;20025;-67
2024/03/20 10:07:39;;;;;;;6.05;3.67;;;17.20;72.20;;;;;;5072527;28;20033;-67
2024/03/20 10:10:06;;;;;;;6.85;4.28;;;17.20;72.10;;;;;;5075621;28;20020;-66
2024/03/20 10:12:31;;;;;;;6.13;3.90;;;17.20;72.40;;;;;;5065653;28;20055;-66
2024/03/20 10:15:00;;;;;;;8.27;5.60;;;17.30;72.30;;;;;;5080443;28;20059;-67
2024/03/20 10:17:25;;;;;;;8.27;5.45;;;17.40;71.90;;;;;;5078243;28;20035;-68
2024/03/20 10:19:51;;;;;;;6.93;4.30;;;17.50;71.60;;;;;;5070480;28;20071;-67
2024/03/20 10:22:16;;;;;;;7.65;4.88;;;17.60;71.60;;;;;;5066263;28;20050;-68
2024/03/20 10:24:42;;;;;;;7.55;4.68;;;17.60;71.40;;;;;;5072218;28;20032;-67
2024/03/20 10:27:09;;;;;;;7.30;5.07;;;17.70;71.40;;;;;;5072545;28;20028;-66
2024/03/20 10:29:38;;;;;;;8.35;5.50;;;17.70;71.10;;;;;;5070448;28;20115;-67
2024/03/20 10:32:05;;;;;;;8.00;4.72;;;17.70;71.00;;;;;;5067159;28;20078;-66
2024/03/20 10:34:33;;;;;;;4.75;3.28;;;17.70;70.90;;;;;;5071419;28;20039;-67
2024/03/20 10:36:59;;;;;;;9.57;6.20;;;17.80;71.10;;;;;;5069676;28;20095;-66
2024/03/20 10:39:27;;;;;;;9.00;5.20;;;17.70;70.50;;;;;;5072847;28;20155;-66
2024/03/20 10:41:54;;;;;;;11.02;6.30;;;17.70;70.40;;;;;;5070032;28;20021;-66
2024/03/20 10:44:21;;;;;;;12.15;7.78;;;17.70;70.50;;;;;;5075082;28;20051;-67
2024/03/20 10:46:53;;;;;;;7.63;5.13;;;17.70;70.20;;;;;;5069574;28;20408;-67
2024/03/20 10:49:23;;;;;;;6.25;3.67;;;17.70;70.40;;;;;;5071304;28;20027;-66
2024/03/20 10:51:50;;;;;;;4.60;3.30;;;17.80;70.50;;;;;;5068003;28;20029;-66
2024/03/20 10:54:17;;;;;;;3.78;2.60;;;17.90;70.60;;;;;;5075872;28;20028;-66
2024/03/20 10:56:51;;;;;;;5.80;3.70;;;18.00;70.60;;;;;;5071745;28;20406;-67
2024/03/20 10:59:21;;;;;;;10.20;5.68;;;18.10;70.50;;;;;;5071378;28;20115;-66
2024/03/20 11:02:14;;;;;;;8.10;5.00;;;18.20;70.10;;;;;;5071202;28;20091;-66
2024/03/20 11:04:42;;;;;;;5.97;4.38;;;18.10;70.10;;;;;;5066563;28;20104;-67
2024/03/20 11:07:28;;;;;;;8.05;5.35;;;18.20;69.80;;;;;;5072983;28;20020;-67
2024/03/20 11:09:56;;;;;;;6.15;3.72;;;18.20;69.10;;;;;;5065319;28;20068;-67
2024/03/20 11:12:38;;;;;;;6.18;3.00;;;18.30;69.40;;;;;;5070593;28;20013;-66
2024/03/20 11:15:05;;;;;;;3.80;2.53;;;18.50;69.40;;;;;;5069067;28;20085;-66
2024/03/20 11:17:38;;;;;;;5.78;4.07;;;18.60;69.40;;;;;;5070581;28;20142;-66
2024/03/20 11:20:45;;;;;;;5.60;3.70;;;18.60;68.60;;;;;;5078571;28;20067;-66
2024/03/20 11:23:22;;;;;;;5.95;4.00;;;18.60;68.80;;;;;;5068220;28;20428;-66
2024/03/20 11:25:47;;;;;;;7.10;3.90;;;18.70;68.50;;;;;;5069090;28;20025;-66
2024/03/20 11:28:13;;;;;;;7.97;5.15;;;18.70;68.50;;;;;;5065146;28;20039;-66
2024/03/20 11:30:39;;;;;;;6.75;3.78;;;18.80;68.30;;;;;;5065641;28;20020;-66
2024/03/20 11:33:05;;;;;;;7.25;4.28;;;18.90;68.30;;;;;;5066372;28;20403;-66
2024/03/20 11:35:31;;;;;;;7.13;3.58;;;18.90;68.10;;;;;;5068962;28;20045;-67
2024/03/20 11:37:57;;;;;;;4.72;3.30;;;18.90;68.10;;;;;;5064787;28;20184;-67
2024/03/20 11:40:23;;;;;;;3.58;2.60;;;18.90;67.80;;;;;;5066812;28;20022;-67
2024/03/20 11:42:50;;;;;;;3.33;2.28;;;19.00;68.10;;;;;;5066281;28;20021;-67
2024/03/20 11:45:16;;;;;;;4.47;2.50;;;19.10;68.10;;;;;;5064037;28;20024;-66
2024/03/20 11:47:42;;;;;;;3.40;2.30;;;19.10;67.90;;;;;;5072825;28;20032;-66
2024/03/20 11:50:15;;;;;;;2.17;1.65;;;19.30;68.00;;;;;;5065695;28;20038;-67
2024/03/20 11:52:41;;;;;;;2.80;1.85;;;19.40;67.90;;;;;;5068189;28;20063;-67
2024/03/20 11:55:12;;;;;;;3.80;2.47;;;19.40;67.70;;;;;;5070255;28;20028;-67
2024/03/20 11:57:40;;;;;;;4.28;2.92;;;19.50;67.40;;;;;;5064256;28;20467;-67
2024/03/20 12:00:12;;;;;;;2.72;1.85;;;19.40;67.50;;;;;;5068508;28;20043;-67
2024/03/20 12:02:40;;;;;;;4.75;3.38;;;19.50;67.70;;;;;;5066149;28;20030;-66
2024/03/20 12:05:11;;;;;;;3.70;2.60;;;19.50;67.40;;;;;;5068083;28;20064;-66
2024/03/20 12:07:37;;;;;;;4.05;2.55;;;19.60;67.30;;;;;;5061720;28;20039;-67
2024/03/20 12:10:03;;;;;;;2.88;2.10;;;19.70;67.30;;;;;;5066301;28;20032;-67
2024/03/20 12:12:29;;;;;;;4.18;1.85;;;19.70;67.30;;;;;;5066053;28;20032;-66
2024/03/20 12:14:55;;;;;;;3.53;2.67;;;19.80;67.20;;;;;;5069426;28;20040;-66
2024/03/20 12:17:22;;;;;;;5.38;3.55;;;19.80;67.00;;;;;;5068020;28;20020;-67
2024/03/20 12:19:48;;;;;;;3.60;2.58;;;19.80;66.60;;;;;;5065089;28;20025;-67
2024/03/20 12:22:15;;;;;;;2.83;2.25;;;19.90;66.80;;;;;;5067780;28;20029;-66
2024/03/20 12:24:44;;;;;;;4.28;2.55;;;19.90;66.70;;;;;;5068075;28;20422;-67
2024/03/20 12:27:11;;;;;;;5.10;3.60;;;20.00;66.60;;;;;;5072515;28;20656;-67
2024/03/20 12:29:37;;;;;;;7.25;4.15;;;19.90;66.00;;;;;;5064259;28;20029;-66
2024/03/20 12:32:03;;;;;;;4.95;3.40;;;19.90;65.80;;;;;;5067554;28;20047;-67
2024/03/20 12:34:28;;;;;;;4.85;3.15;;;19.80;66.00;;;;;;5066084;28;20024;-66
2024/03/20 12:36:54;;;;;;;5.45;3.20;;;19.80;65.90;;;;;;5072272;28;20051;-66
2024/03/20 12:39:20;;;;;;;3.17;2.20;;;19.80;66.00;;;;;;5069771;28;20031;-66
2024/03/20 12:41:46;;;;;;;4.60;3.20;;;20.00;66.90;;;;;;5064976;28;20051;-66